Time;durP1;ratioP1;P1;durP2;ratioP2;P2;SDS_P1;SDS_P2;PMS_P1;PMS_P2;Temp;Humidity;BMP_temperature;BMP_pressure;BME280_temperature;BME280_humidity;BME280_pressure;Samples;Min_cycle;Max_cycle;Signal;HPM_P1;HPM_P2
2023/10/16 00:01:31;;;;;;;9.02;6.55;;;4.40;55.70;;;;;;7374278;19;20018;-69
2023/10/16 00:04:04;;;;;;;7.22;5.70;;;4.40;52.10;;;;;;7370900;19;20010;-70
2023/10/16 00:06:36;;;;;;;8.45;6.07;;;4.30;51.40;;;;;;7372174;19;20014;-70
2023/10/16 00:09:14;;;;;;;8.23;6.85;;;4.30;53.00;;;;;;7375150;19;20006;-69
2023/10/16 00:11:46;;;;;;;7.82;6.35;;;4.40;52.40;;;;;;7373946;19;20378;-70
2023/10/16 00:14:23;;;;;;;9.93;6.72;;;4.40;48.30;;;;;;7374952;19;26791;-69
2023/10/16 00:16:56;;;;;;;8.77;5.97;;;4.30;44.50;;;;;;7370626;19;20010;-71
2023/10/16 00:19:27;;;;;;;9.77;6.40;;;4.40;42.90;;;;;;7372076;19;20022;-70
2023/10/16 00:21:57;;;;;;;9.05;5.80;;;4.40;43.10;;;;;;7369840;19;20025;-71
2023/10/16 00:24:28;;;;;;;8.07;5.68;;;4.50;37.70;;;;;;7373169;19;20018;-72
2023/10/16 00:27:00;;;;;;;10.48;5.93;;;4.50;32.50;;;;;;7373346;19;20367;-71
2023/10/16 00:29:35;;;;;;;8.60;5.55;;;4.40;28.30;;;;;;7374751;19;20089;-71
2023/10/16 00:32:08;;;;;;;9.35;5.47;;;4.40;33.10;;;;;;7376137;19;20015;-71
2023/10/16 00:34:38;;;;;;;7.80;5.40;;;4.50;34.00;;;;;;7374907;19;20045;-71
2023/10/16 00:37:10;;;;;;;7.65;5.22;;;4.50;32.50;;;;;;7373098;19;20006;-71
2023/10/16 00:39:39;;;;;;;8.45;5.57;;;4.40;31.10;;;;;;7374188;19;20048;-71
2023/10/16 00:42:10;;;;;;;7.45;5.50;;;4.40;30.00;;;;;;7375130;19;20010;-71
2023/10/16 00:44:42;;;;;;;8.73;5.53;;;4.50;32.70;;;;;;7372970;19;20088;-70
2023/10/16 00:47:14;;;;;;;9.02;5.78;;;4.50;32.40;;;;;;7373317;19;20074;-71
2023/10/16 00:49:49;;;;;;;6.82;5.28;;;4.50;32.20;;;;;;7374949;19;20167;-71
2023/10/16 00:52:20;;;;;;;9.85;5.38;;;4.60;30.70;;;;;;7378467;19;20393;-71
2023/10/16 00:54:53;;;;;;;9.88;5.63;;;4.40;32.50;;;;;;7380053;19;20015;-70
2023/10/16 00:57:27;;;;;;;8.88;5.53;;;4.30;35.00;;;;;;7377077;19;20021;-71
2023/10/16 00:59:58;;;;;;;9.17;5.23;;;4.30;39.20;;;;;;7376294;19;20015;-71
2023/10/16 01:02:33;;;;;;;8.48;5.82;;;4.20;41.40;;;;;;7381381;19;20085;-71
2023/10/16 01:05:05;;;;;;;9.80;5.53;;;4.20;44.90;;;;;;7379894;19;20046;-71
2023/10/16 01:07:36;;;;;;;7.80;5.25;;;4.20;46.40;;;;;;7378218;19;20002;-71
2023/10/16 01:10:10;;;;;;;8.50;5.90;;;4.20;47.90;;;;;;7380732;19;20014;-71
2023/10/16 01:12:54;;;;;;;8.48;5.60;;;4.10;46.90;;;;;;7379078;19;20018;-71
2023/10/16 01:15:25;;;;;;;8.43;5.70;;;4.00;52.80;;;;;;7382168;19;20014;-71
2023/10/16 01:17:58;;;;;;;11.13;6.10;;;3.90;57.10;;;;;;7376949;19;20486;-71
2023/10/16 01:20:28;;;;;;;7.20;6.00;;;3.70;57.40;;;;;;7374512;19;20027;-71
2023/10/16 01:22:58;;;;;;;8.75;6.00;;;3.70;64.50;;;;;;7379518;19;20056;-72
2023/10/16 01:25:31;;;;;;;8.38;5.57;;;3.60;66.70;;;;;;7380024;19;20094;-69
2023/10/16 01:28:03;;;;;;;12.88;6.80;;;3.60;74.60;;;;;;7381202;19;20951;-71
2023/10/16 01:30:34;;;;;;;8.65;6.22;;;3.60;77.80;;;;;;7381224;19;20018;-69
2023/10/16 01:33:07;;;;;;;9.90;6.50;;;3.50;75.60;;;;;;7396378;19;20011;-71
2023/10/16 01:35:37;;;;;;;7.38;6.28;;;3.50;82.50;;;;;;7388799;19;20025;-69
2023/10/16 01:38:14;;;;;;;8.73;6.35;;;3.40;84.40;;;;;;7380948;19;20007;-69
2023/10/16 01:41:04;;;;;;;9.40;6.15;;;3.40;90.30;;;;;;7381537;19;20043;-69
2023/10/16 01:43:36;;;;;;;9.63;6.85;;;3.30;90.40;;;;;;7374949;19;20015;-69
2023/10/16 01:46:09;;;;;;;9.18;6.53;;;3.40;92.90;;;;;;7379352;19;20107;-70
2023/10/16 01:48:41;;;;;;;8.60;6.47;;;3.40;91.10;;;;;;7374404;19;20075;-70
2023/10/16 01:51:13;;;;;;;8.02;6.78;;;3.40;91.60;;;;;;7379973;19;20022;-71
2023/10/16 01:53:43;;;;;;;14.95;6.78;;;3.40;91.60;;;;;;7377145;19;20829;-70
2023/10/16 01:56:17;;;;;;;10.77;6.63;;;3.40;91.90;;;;;;7378583;19;20423;-71
2023/10/16 01:58:49;;;;;;;8.88;6.30;;;3.40;92.50;;;;;;7377588;19;20376;-70
2023/10/16 02:01:21;;;;;;;9.70;6.88;;;3.40;92.00;;;;;;7379868;19;20013;-70
2023/10/16 02:03:52;;;;;;;9.13;6.45;;;3.40;91.00;;;;;;7375243;19;20102;-70
2023/10/16 02:06:25;;;;;;;8.15;7.03;;;3.30;92.70;;;;;;7378560;19;20011;-70
2023/10/16 02:08:56;;;;;;;9.50;6.68;;;3.30;93.50;;;;;;7377107;19;20074;-70
2023/10/16 02:11:28;;;;;;;9.32;6.60;;;3.30;92.60;;;;;;7379040;19;20023;-70
2023/10/16 02:13:59;;;;;;;11.73;7.90;;;3.20;91.50;;;;;;7372330;19;20014;-70
2023/10/16 02:16:31;;;;;;;10.43;6.75;;;3.10;91.50;;;;;;7377598;19;20082;-71
2023/10/16 02:19:01;;;;;;;7.80;6.30;;;3.00;91.70;;;;;;7378937;19;20351;-70
2023/10/16 02:21:31;;;;;;;9.20;6.88;;;3.00;94.50;;;;;;7379262;19;20014;-69
2023/10/16 02:24:03;;;;;;;10.45;6.50;;;3.00;97.50;;;;;;7379209;19;20027;-70
2023/10/16 02:26:53;;;;;;;7.45;6.38;;;3.00;99.90;;;;;;7379115;19;20041;-70
2023/10/16 02:29:23;;;;;;;14.10;7.47;;;3.00;99.90;;;;;;7377663;19;20043;-69
2023/10/16 02:31:53;;;;;;;8.38;6.40;;;2.90;99.90;;;;;;7378649;19;20028;-70
2023/10/16 02:34:26;;;;;;;8.75;6.97;;;2.90;99.90;;;;;;7379766;19;20927;-70
2023/10/16 02:36:57;;;;;;;11.38;7.10;;;3.00;99.90;;;;;;7373680;19;20019;-70
2023/10/16 02:42:14;;;;;;;8.43;6.78;;;2.90;99.90;;;;;;6868448;19;2004269;-70
2023/10/16 02:44:45;;;;;;;10.77;7.60;;;2.90;99.90;;;;;;7377896;19;20032;-69
2023/10/16 02:47:21;;;;;;;7.57;6.78;;;2.80;99.90;;;;;;7378360;19;20425;-69
2023/10/16 02:49:52;;;;;;;9.80;7.15;;;2.80;99.90;;;;;;7377267;19;20054;-70
2023/10/16 02:52:22;;;;;;;8.82;6.50;;;2.70;99.90;;;;;;7377743;19;20125;-70
2023/10/16 02:54:52;;;;;;;8.95;6.70;;;2.70;99.90;;;;;;7376716;19;20340;-69
2023/10/16 02:57:25;;;;;;;10.85;7.28;;;2.70;99.90;;;;;;7372386;19;20026;-69
2023/10/16 02:59:56;;;;;;;9.80;6.85;;;2.60;99.90;;;;;;7378849;19;20011;-70
2023/10/16 03:02:27;;;;;;;8.98;7.10;;;2.50;99.90;;;;;;7375024;19;20067;-70
2023/10/16 03:05:10;;;;;;;11.73;7.00;;;2.50;99.90;;;;;;7374055;19;20504;-71
2023/10/16 03:07:44;;;;;;;9.32;6.80;;;2.60;99.90;;;;;;7375930;19;20093;-70
2023/10/16 03:10:16;;;;;;;8.80;6.80;;;2.60;99.90;;;;;;7377175;19;20031;-71
2023/10/16 03:12:49;;;;;;;9.52;7.45;;;2.60;99.90;;;;;;7377181;19;20016;-70
2023/10/16 03:15:27;;;;;;;11.10;7.65;;;2.60;99.90;;;;;;7379583;19;20514;-70
2023/10/16 03:17:57;;;;;;;8.07;6.63;;;2.70;99.90;;;;;;7377315;19;20009;-69
2023/10/16 03:20:35;;;;;;;9.27;7.03;;;2.70;99.90;;;;;;7370152;19;20071;-70
2023/10/16 03:23:07;;;;;;;11.02;7.10;;;2.80;99.90;;;;;;7378972;19;20056;-70
2023/10/16 03:28:22;;;;;;;9.95;6.47;;;2.80;99.90;;;;;;7376567;19;20041;-70
2023/10/16 03:30:52;;;;;;;9.57;6.97;;;2.90;99.90;;;;;;7375723;19;20018;-70
2023/10/16 03:33:23;;;;;;;9.57;6.70;;;2.90;99.90;;;;;;7377137;19;20018;-70
2023/10/16 03:35:53;;;;;;;12.65;6.68;;;3.00;99.90;;;;;;7377030;19;20025;-70
2023/10/16 03:38:24;;;;;;;8.88;6.70;;;2.90;99.90;;;;;;7372292;19;20078;-69
2023/10/16 03:40:55;;;;;;;9.32;7.03;;;2.90;99.90;;;;;;7378306;19;20034;-70
2023/10/16 03:43:28;;;;;;;12.38;6.68;;;2.90;99.90;;;;;;7373186;19;20046;-70
2023/10/16 03:45:58;;;;;;;10.23;6.47;;;2.90;99.90;;;;;;7371787;19;20089;-70
2023/10/16 03:48:28;;;;;;;10.02;6.30;;;2.80;99.90;;;;;;7374032;19;20022;-71
2023/10/16 03:51:00;;;;;;;10.02;6.63;;;2.80;99.90;;;;;;7376526;19;20583;-70
2023/10/16 03:53:32;;;;;;;8.13;5.88;;;2.80;99.90;;;;;;7375660;19;20014;-70
2023/10/16 03:56:02;;;;;;;8.07;5.80;;;2.80;99.90;;;;;;7375727;19;20031;-69
2023/10/16 03:58:41;;;;;;;9.93;5.88;;;2.80;99.90;;;;;;7375885;19;20085;-70
2023/10/16 04:01:11;;;;;;;8.77;6.25;;;2.80;99.90;;;;;;7375854;19;20539;-70
2023/10/16 04:03:54;;;;;;;8.82;6.25;;;2.80;99.90;;;;;;7376643;19;20030;-69
2023/10/16 04:06:28;;;;;;;8.90;5.68;;;2.80;99.90;;;;;;7374792;19;20057;-70
2023/10/16 04:08:59;;;;;;;8.45;5.82;;;2.80;99.90;;;;;;7373027;19;20053;-70
2023/10/16 04:11:32;;;;;;;7.32;5.60;;;2.80;99.90;;;;;;7375975;19;20018;-69
2023/10/16 04:14:08;;;;;;;9.90;5.47;;;2.80;99.90;;;;;;7374315;19;20078;-70
2023/10/16 04:16:54;;;;;;;7.97;5.85;;;2.80;99.90;;;;;;7371990;19;20420;-69
2023/10/16 04:19:36;;;;;;;9.18;6.35;;;2.80;99.90;;;;;;7374905;19;20018;-70
2023/10/16 04:22:16;;;;;;;6.45;5.70;;;2.70;99.90;;;;;;7373312;19;20025;-70
2023/10/16 04:24:54;;;;;;;7.07;5.63;;;2.70;99.90;;;;;;7374876;19;20081;-68
2023/10/16 04:27:33;;;;;;;8.40;5.78;;;2.70;99.90;;;;;;7378010;19;20027;-70
2023/10/16 04:33:13;;;;;;;8.57;5.65;;;2.80;99.90;;;;;;7382009;19;20010;-69
2023/10/16 04:38:53;;;;;;;6.47;5.05;;;2.90;99.90;;;;;;7376183;19;20027;-70
2023/10/16 04:44:49;;;;;;;7.60;5.55;;;3.00;99.90;;;;;;6867124;19;2003883;-69
2023/10/16 04:47:17;;;;;;;6.47;5.40;;;2.90;99.90;;;;;;6870161;19;2003695;-69
2023/10/16 04:49:59;;;;;;;8.75;5.78;;;2.90;99.90;;;;;;7379442;19;20010;-70
2023/10/16 04:53:06;;;;;;;7.82;5.88;;;2.90;99.90;;;;;;7377868;19;20012;-70
2023/10/16 04:55:53;;;;;;;7.38;5.45;;;2.90;99.90;;;;;;7379720;19;20014;-69
2023/10/16 04:58:32;;;;;;;9.43;6.65;;;2.80;99.90;;;;;;6871786;19;2003825;-69
2023/10/16 05:06:56;;;;;;;10.05;6.40;;;2.40;96.10;;;;;;6868182;19;2003951;-71
2023/10/16 05:10:12;;;;;;;8.18;6.00;;;2.40;99.90;;;;;;7379562;19;20014;-70
2023/10/16 05:18:20;;;;;;;7.80;6.78;;;2.20;99.90;;;;;;7373416;19;20017;-70
2023/10/16 05:21:16;;;;;;;9.90;6.18;;;2.10;99.90;;;;;;7376608;19;20086;-70
2023/10/16 06:15:23;;;;;;;9.68;6.57;;;2.40;97.80;;;;;;7376018;19;20039;-69
2023/10/16 06:17:53;;;;;;;11.15;6.68;;;2.50;97.10;;;;;;7375554;19;20007;-69
2023/10/16 06:20:23;;;;;;;11.80;7.55;;;2.60;95.50;;;;;;7375588;19;20025;-69
2023/10/16 06:22:53;;;;;;;9.50;7.05;;;2.70;87.10;;;;;;7377645;19;20086;-70
2023/10/16 06:25:28;;;;;;;9.63;6.82;;;2.90;87.90;;;;;;7376145;19;20011;-70
2023/10/16 06:27:59;;;;;;;11.32;7.00;;;2.90;80.30;;;;;;7372918;19;20014;-71
2023/10/16 06:30:29;;;;;;;12.15;6.90;;;2.90;70.80;;;;;;7375523;19;20519;-70
2023/10/16 06:33:02;;;;;;;9.65;6.78;;;3.00;62.60;;;;;;7375723;19;20519;-70
2023/10/16 06:35:32;;;;;;;12.02;6.90;;;3.10;57.80;;;;;;7374819;19;20045;-69
2023/10/16 06:38:10;;;;;;;9.57;6.60;;;3.00;52.10;;;;;;7374304;19;20002;-69
2023/10/16 06:40:44;;;;;;;15.80;6.75;;;3.00;49.60;;;;;;7375818;19;20013;-69
2023/10/16 06:43:14;;;;;;;15.43;7.35;;;3.20;50.20;;;;;;7376336;19;20014;-69
2023/10/16 06:45:54;;;;;;;9.75;6.90;;;3.30;47.00;;;;;;7375273;19;20504;-69
2023/10/16 06:48:27;;;;;;;10.93;6.72;;;3.40;44.50;;;;;;7375504;19;20057;-69
2023/10/16 06:51:03;;;;;;;;;;;3.60;40.80;;;;;;7372053;19;20006;-70
2023/10/16 06:53:34;;;;;;;10.23;6.57;;;3.70;34.70;;;;;;7375231;19;19910;-68
2023/10/16 06:56:08;;;;;;;10.52;6.97;;;3.70;28.10;;;;;;7374478;19;20074;-69
2023/10/16 06:58:40;;;;;;;9.60;7.28;;;3.80;24.70;;;;;;7375273;19;20034;-69
2023/10/16 07:01:12;;;;;;;12.40;6.63;;;3.90;21.50;;;;;;7376481;19;20058;-69
2023/10/16 07:03:42;;;;;;;8.75;6.38;;;4.00;19.60;;;;;;7375760;19;20011;-68
2023/10/16 07:06:14;;;;;;;10.15;6.10;;;4.10;17.00;;;;;;7374162;19;20014;-69
2023/10/16 07:08:44;;;;;;;9.75;6.15;;;4.10;14.40;;;;;;7373531;19;20085;-68
2023/10/16 07:11:19;;;;;;;11.50;7.25;;;4.20;12.70;;;;;;7376666;19;20029;-68
2023/10/16 07:13:49;;;;;;;9.38;6.60;;;4.30;10.50;;;;;;7376160;19;20031;-68
2023/10/16 07:16:20;;;;;;;10.52;6.28;;;4.20;2.20;;;;;;7374662;19;20017;-69
2023/10/16 07:18:53;;;;;;;11.80;6.25;;;4.30;6.00;;;;;;7374199;19;20026;-69
2023/10/16 07:21:25;;;;;;;9.48;5.75;;;4.30;1.50;;;;;;7374765;19;20470;-68
2023/10/16 07:23:56;;;;;;;9.25;6.30;;;4.40;7.70;;;;;;7375795;19;20014;-69
2023/10/16 07:26:29;;;;;;;9.68;7.00;;;4.60;4.30;;;;;;7375183;19;20051;-69
2023/10/16 07:28:59;;;;;;;12.95;6.72;;;4.60;1.10;;;;;;7372238;19;20011;-69
2023/10/16 07:31:29;;;;;;;12.32;6.05;;;4.60;1.00;;;;;;7374984;19;20014;-69
2023/10/16 07:34:04;;;;;;;8.98;6.38;;;4.60;1.00;;;;;;7375106;19;20014;-70
2023/10/16 07:36:34;;;;;;;7.93;5.82;;;4.70;1.00;;;;;;7367476;19;20122;-69
2023/10/16 07:39:05;;;;;;;14.30;6.15;;;4.80;1.00;;;;;;7373016;19;20039;-70
2023/10/16 07:41:38;;;;;;;9.60;5.97;;;4.70;1.00;;;;;;7375855;19;20012;-69
2023/10/16 07:44:08;;;;;;;10.77;5.93;;;4.70;1.00;;;;;;7375120;19;20011;-69
2023/10/16 07:46:38;;;;;;;7.50;5.88;;;4.90;1.00;;;;;;7373890;19;20031;-69
2023/10/16 07:49:15;;;;;;;11.82;7.03;;;5.00;1.00;;;;;;7374314;19;20475;-69
2023/10/16 07:51:48;;;;;;;9.05;6.30;;;5.20;1.00;;;;;;7374164;19;20017;-70
2023/10/16 07:54:18;;;;;;;11.00;6.78;;;5.50;1.00;;;;;;7375726;19;20014;-69
2023/10/16 07:56:51;;;;;;;12.93;6.47;;;5.60;1.00;;;;;;7372497;19;20082;-69
2023/10/16 07:59:43;;;;;;;14.02;6.35;;;5.70;1.00;;;;;;6864295;19;2003977;-69
2023/10/16 08:02:17;;;;;;;13.30;7.80;;;5.50;1.00;;;;;;7379816;19;20336;-69
2023/10/16 08:04:51;;;;;;;9.57;6.15;;;5.60;1.00;;;;;;7382432;19;20432;-70
2023/10/16 08:07:45;;;;;;;8.93;5.95;;;5.80;1.00;;;;;;7380275;19;20010;-70
2023/10/16 08:12:57;;;;;;;8.52;6.25;;;6.20;1.00;;;;;;7381318;19;20119;-69
2023/10/16 08:15:27;;;;;;;9.40;5.85;;;6.30;1.00;;;;;;7377176;19;20674;-69
2023/10/16 08:17:59;;;;;;;9.05;5.60;;;6.40;1.00;;;;;;7380406;19;20039;-70
2023/10/16 08:20:49;;;;;;;7.50;5.53;;;6.50;1.00;;;;;;7377913;19;20011;-70
2023/10/16 08:23:21;;;;;;;8.57;5.78;;;6.40;1.00;;;;;;6869030;19;2004818;-70
2023/10/16 08:25:51;;;;;;;9.52;5.75;;;6.70;1.00;;;;;;7380189;19;20039;-69
2023/10/16 08:28:24;;;;;;;8.13;6.03;;;6.90;1.00;;;;;;7377355;19;20101;-69
2023/10/16 08:30:56;;;;;;;6.88;5.93;;;6.90;1.00;;;;;;7381265;19;20110;-69
2023/10/16 08:33:32;;;;;;;6.38;5.18;;;7.10;1.00;;;;;;7381889;19;20102;-70
2023/10/16 08:36:04;;;;;;;9.60;5.03;;;7.30;1.00;;;;;;7376128;19;20015;-69
2023/10/16 08:38:36;;;;;;;7.65;5.03;;;7.40;1.00;;;;;;7380354;19;20097;-70
2023/10/16 08:41:14;;;;;;;6.75;5.43;;;7.60;1.00;;;;;;7378973;19;20495;-69
2023/10/16 08:46:34;;;;;;;5.65;4.78;;;7.40;1.00;;;;;;7375167;19;20014;-70
2023/10/16 08:49:08;;;;;;;6.20;4.93;;;7.40;1.00;;;;;;7379662;19;20007;-70
2023/10/16 08:51:38;;;;;;;;;;;7.60;1.00;;;;;;7387470;19;20078;-70
2023/10/16 08:54:35;;;;;;;7.97;4.75;;;7.80;1.00;;;;;;7384958;19;19951;-70
2023/10/16 08:56:59;;;;;;;6.43;4.90;;;7.80;1.00;;;;;;7379606;19;20164;-70
2023/10/16 08:59:33;;;;;;;6.97;4.72;;;8.10;1.00;;;;;;7377526;19;20010;-70
2023/10/16 09:02:06;;;;;;;6.28;5.13;;;8.10;1.00;;;;;;7376534;19;20022;-71
2023/10/16 09:04:38;;;;;;;9.70;5.20;;;8.10;1.00;;;;;;7379002;19;20011;-70
2023/10/16 09:07:11;;;;;;;11.48;4.88;;;8.20;1.00;;;;;;7374875;19;20743;-69
2023/10/16 09:09:42;;;;;;;6.65;4.97;;;8.30;1.00;;;;;;7377460;19;20010;-70
2023/10/16 09:12:12;;;;;;;6.85;4.60;;;8.10;1.00;;;;;;7374802;19;20096;-68
2023/10/16 09:14:45;;;;;;;10.23;6.68;;;8.30;1.00;;;;;;7376802;19;20011;-69
2023/10/16 09:17:15;;;;;;;6.10;4.72;;;8.50;1.00;;;;;;7374078;19;20038;-71
2023/10/16 09:19:49;;;;;;;6.72;4.93;;;8.30;1.00;;;;;;7377171;19;20482;-69
2023/10/16 09:22:35;;;;;;;5.13;4.63;;;8.50;1.00;;;;;;7374650;19;20059;-69
2023/10/16 09:25:07;;;;;;;6.38;5.10;;;8.50;1.00;;;;;;7377417;19;20022;-70
2023/10/16 09:27:39;;;;;;;6.82;4.60;;;8.50;1.00;;;;;;7375747;19;20015;-69
2023/10/16 09:30:18;;;;;;;8.05;4.43;;;8.60;1.00;;;;;;7376635;19;20014;-70
2023/10/16 09:32:51;;;;;;;7.20;4.90;;;8.50;1.00;;;;;;7376475;19;20011;-69
2023/10/16 09:35:30;;;;;;;6.75;4.53;;;8.80;1.00;;;;;;7376405;19;21731;-70
2023/10/16 09:38:17;;;;;;;6.97;5.38;;;8.80;1.00;;;;;;7375800;19;20474;-69
2023/10/16 09:41:37;;;;;;;5.03;4.25;;;8.90;1.00;;;;;;6864282;19;2003921;-69
2023/10/16 09:43:56;;;;;;;5.85;4.47;;;8.70;1.00;;;;;;6868667;19;2003979;-69
2023/10/16 09:46:48;;;;;;;6.78;4.97;;;8.70;1.00;;;;;;7375415;19;20420;-71
2023/10/16 09:49:21;;;;;;;6.55;4.78;;;8.80;1.00;;;;;;6861485;19;2004759;-71
2023/10/16 09:51:57;;;;;;;12.80;5.57;;;8.90;1.00;;;;;;7374998;19;20495;-70
2023/10/16 09:54:36;;;;;;;7.18;4.97;;;9.10;1.00;;;;;;7373289;19;20078;-70
2023/10/16 09:57:10;;;;;;;8.07;5.57;;;9.00;1.00;;;;;;7373714;19;20018;-70
2023/10/16 09:59:43;;;;;;;9.98;5.53;;;9.00;1.00;;;;;;7373670;19;20149;-70
2023/10/16 10:02:19;;;;;;;7.28;4.70;;;9.30;1.00;;;;;;7374528;19;20011;-69
2023/10/16 10:04:59;;;;;;;9.68;5.30;;;9.10;1.00;;;;;;7236472;19;2739917;-70
2023/10/16 10:07:38;;;;;;;8.65;5.10;;;9.10;1.00;;;;;;7375466;19;20967;-70
2023/10/16 10:12:56;;;;;;;9.03;6.20;;;9.10;1.00;;;;;;7376068;19;20098;-70
2023/10/16 10:15:30;;;;;;;6.30;5.57;;;9.50;1.00;;;;;;7377349;19;20030;-71
2023/10/16 10:18:31;;;;;;;7.13;5.53;;;9.60;1.00;;;;;;7376543;19;20018;-70
2023/10/16 10:21:02;;;;;;;8.05;6.13;;;9.70;1.00;;;;;;6862676;19;2003796;-69
2023/10/16 10:23:36;;;;;;;6.15;5.30;;;9.70;1.00;;;;;;7373669;19;20078;-70
2023/10/16 10:26:07;;;;;;;6.55;5.60;;;9.80;1.00;;;;;;7374315;19;20018;-70
2023/10/16 10:28:40;;;;;;;7.78;5.22;;;9.80;1.00;;;;;;7375267;19;20011;-69
2023/10/16 10:31:15;;;;;;;7.03;5.63;;;9.80;1.00;;;;;;7375459;19;20348;-69
2023/10/16 10:33:58;;;;;;;9.57;5.38;;;10.10;1.00;;;;;;7376127;19;20368;-70
2023/10/16 10:36:38;;;;;;;10.95;5.43;;;10.00;1.00;;;;;;7376145;19;20475;-70
2023/10/16 10:39:38;;;;;;;7.30;5.60;;;10.10;1.00;;;;;;7368133;19;20010;-69
2023/10/16 10:42:16;;;;;;;8.15;5.40;;;9.80;1.00;;;;;;7370059;19;20013;-69
2023/10/16 10:45:17;;;;;;;10.23;6.28;;;10.10;1.00;;;;;;7370244;19;20461;-70
2023/10/16 10:47:47;;;;;;;7.00;5.88;;;10.20;1.00;;;;;;6857942;19;2004055;-70
2023/10/16 10:50:22;;;;;;;6.47;5.40;;;10.20;1.00;;;;;;7364375;19;20390;-70
2023/10/16 10:52:52;;;;;;;7.70;5.53;;;10.30;1.00;;;;;;7375350;19;20026;-70
2023/10/16 10:55:25;;;;;;;8.13;4.80;;;10.10;1.00;;;;;;7377176;19;20464;-69
2023/10/16 10:57:58;;;;;;;7.70;5.25;;;10.30;1.00;;;;;;7374366;19;20031;-69
2023/10/16 11:03:22;;;;;;;8.43;5.22;;;10.40;1.00;;;;;;6864752;19;2005011;-70
2023/10/16 11:05:55;;;;;;;8.50;5.20;;;10.10;1.00;;;;;;7373657;19;20022;-69
2023/10/16 11:08:33;;;;;;;7.57;5.20;;;10.00;1.00;;;;;;7373614;19;20010;-69
2023/10/16 11:11:05;;;;;;;6.43;5.00;;;9.90;1.00;;;;;;7375379;19;20493;-71
2023/10/16 11:13:37;;;;;;;11.20;5.57;;;10.00;1.00;;;;;;7372663;19;20034;-71
2023/10/16 11:16:11;;;;;;;6.40;5.03;;;10.20;1.00;;;;;;7367739;19;20023;-69
2023/10/16 11:18:43;;;;;;;6.35;4.70;;;10.30;1.00;;;;;;7373159;19;20035;-71
2023/10/16 11:21:16;;;;;;;7.53;4.70;;;10.50;1.00;;;;;;7367473;19;20010;-70
2023/10/16 11:23:46;;;;;;;3.45;3.13;;;10.60;1.00;;;;;;7361627;19;20002;-70
2023/10/16 11:26:16;;;;;;;6.57;3.22;;;10.60;1.00;;;;;;7373737;19;20013;-70
2023/10/16 11:28:48;;;;;;;4.25;3.10;;;10.60;1.00;;;;;;7373837;19;20068;-70
2023/10/16 11:31:41;;;;;;;3.42;3.08;;;10.90;1.00;;;;;;7370082;19;20018;-70
2023/10/16 11:34:19;;;;;;;2.93;2.40;;;11.00;1.00;;;;;;7373936;19;20014;-70
2023/10/16 11:36:53;;;;;;;3.33;2.65;;;10.70;1.00;;;;;;7373436;19;20219;-70
2023/10/16 11:39:26;;;;;;;3.85;2.50;;;10.80;1.00;;;;;;7368616;19;20021;-70
2023/10/16 11:41:58;;;;;;;3.33;2.45;;;11.10;1.00;;;;;;7368294;19;20011;-71
2023/10/16 11:44:32;;;;;;;2.38;2.17;;;11.20;1.00;;;;;;7372252;19;20370;-70
2023/10/16 11:47:04;;;;;;;;;;;11.20;1.00;;;;;;7364864;19;20520;-71
2023/10/16 11:49:37;;;;;;;2.22;1.88;;;11.20;1.00;;;;;;7371792;19;19940;-71
2023/10/16 11:52:19;;;;;;;2.35;1.88;;;11.20;1.00;;;;;;7372233;19;20014;-69
2023/10/16 11:54:56;;;;;;;2.83;1.92;;;11.30;1.00;;;;;;7371931;19;20006;-70
2023/10/16 11:57:27;;;;;;;2.13;1.90;;;11.20;1.00;;;;;;7372196;19;20014;-71
2023/10/16 11:59:57;;;;;;;2.15;1.65;;;11.30;1.00;;;;;;7373886;19;20010;-70
2023/10/16 12:02:29;;;;;;;2.88;1.60;;;11.30;1.00;;;;;;7372316;19;20025;-69
2023/10/16 12:05:05;;;;;;;1.75;1.25;;;11.20;1.00;;;;;;7373314;19;20022;-69
2023/10/16 12:07:43;;;;;;;4.68;1.50;;;11.20;1.00;;;;;;7372834;19;20014;-70
2023/10/16 12:10:15;;;;;;;2.13;1.63;;;11.50;1.00;;;;;;7376966;19;20013;-70
2023/10/16 12:12:46;;;;;;;2.30;1.42;;;11.40;1.00;;;;;;7373868;19;20010;-71
2023/10/16 12:15:16;;;;;;;3.50;1.40;;;11.50;1.00;;;;;;7372057;19;20046;-72
2023/10/16 12:17:46;;;;;;;2.10;1.45;;;11.50;1.00;;;;;;7371463;19;20102;-70
2023/10/16 12:20:16;;;;;;;3.47;1.70;;;11.40;1.00;;;;;;7370788;19;20027;-70
2023/10/16 12:22:49;;;;;;;2.20;1.20;;;11.50;1.00;;;;;;7373361;19;20737;-70
2023/10/16 12:25:21;;;;;;;5.82;3.83;;;11.50;1.00;;;;;;7373153;19;20003;-69
2023/10/16 12:27:51;;;;;;;2.10;1.40;;;11.70;1.00;;;;;;7374145;19;20603;-69
2023/10/16 12:30:23;;;;;;;3.88;1.50;;;11.80;1.00;;;;;;7388330;19;20499;-71
2023/10/16 12:32:51;;;;;;;2.63;1.10;;;11.70;1.00;;;;;;7374486;19;20023;-70
2023/10/16 12:35:22;;;;;;;1.45;1.33;;;11.70;1.00;;;;;;7373098;19;20006;-71
2023/10/16 12:37:55;;;;;;;2.83;1.40;;;11.60;1.00;;;;;;7377640;19;20023;-69
2023/10/16 12:40:34;;;;;;;1.60;1.38;;;11.70;1.00;;;;;;7372604;19;20043;-70
2023/10/16 12:43:05;;;;;;;2.40;1.25;;;11.80;1.00;;;;;;7371053;19;20018;-71
2023/10/16 12:45:39;;;;;;;1.63;1.23;;;11.80;1.00;;;;;;7370959;19;20033;-69
2023/10/16 12:48:10;;;;;;;1.60;1.20;;;11.80;1.00;;;;;;7374553;19;20011;-70
2023/10/16 12:50:40;;;;;;;1.50;1.20;;;11.90;1.00;;;;;;7376013;19;20377;-69
2023/10/16 12:53:24;;;;;;;1.27;1.00;;;12.00;1.00;;;;;;7377553;19;20010;-70
2023/10/16 12:55:55;;;;;;;1.83;1.25;;;11.90;1.00;;;;;;7377566;19;20379;-70
2023/10/16 12:58:26;;;;;;;3.47;1.20;;;12.00;1.00;;;;;;7374729;19;20017;-70
2023/10/16 13:00:58;;;;;;;4.38;1.60;;;12.10;1.00;;;;;;7377937;19;20007;-71
2023/10/16 13:03:28;;;;;;;1.77;1.30;;;11.90;1.00;;;;;;7375713;19;20020;-71
2023/10/16 13:06:05;;;;;;;3.40;1.30;;;12.00;1.00;;;;;;7377753;19;20010;-70
2023/10/16 13:08:39;;;;;;;1.98;1.15;;;12.10;1.00;;;;;;7376575;19;20036;-70
2023/10/16 13:11:10;;;;;;;3.33;1.30;;;12.10;1.00;;;;;;7376984;19;20089;-70
2023/10/16 13:13:41;;;;;;;2.10;1.38;;;12.10;1.00;;;;;;7379945;19;20013;-70
2023/10/16 13:16:11;;;;;;;3.15;1.52;;;12.10;1.00;;;;;;7375190;19;20049;-71
2023/10/16 13:18:43;;;;;;;2.42;1.35;;;12.10;1.00;;;;;;7377316;19;20103;-70
2023/10/16 13:21:15;;;;;;;3.83;1.60;;;12.00;1.00;;;;;;7372244;19;20006;-69
2023/10/16 13:23:51;;;;;;;2.08;1.45;;;12.10;1.00;;;;;;7377951;19;20011;-69
2023/10/16 13:26:21;;;;;;;2.63;1.70;;;12.10;1.00;;;;;;7376677;19;20002;-69
2023/10/16 13:28:51;;;;;;;2.40;1.63;;;12.10;1.00;;;;;;7378262;19;20737;-70
2023/10/16 13:31:21;;;;;;;1.92;1.30;;;12.10;1.00;;;;;;7379229;19;20081;-70
2023/10/16 13:33:51;;;;;;;3.00;1.80;;;12.30;1.00;;;;;;7378302;19;20406;-71
2023/10/16 13:36:21;;;;;;;1.58;1.25;;;12.10;1.00;;;;;;7377146;19;20011;-69
2023/10/16 13:38:55;;;;;;;2.55;1.40;;;12.00;1.00;;;;;;7375525;19;20085;-70
2023/10/16 13:41:27;;;;;;;;;;;12.10;1.00;;;;;;7379741;19;20002;-70
2023/10/16 13:43:57;;;;;;;2.35;1.52;;;12.00;1.00;;;;;;7378088;19;19927;-70
2023/10/16 13:46:31;;;;;;;3.05;1.15;;;12.10;1.00;;;;;;7377530;19;20011;-70
2023/10/16 13:49:01;;;;;;;2.42;1.67;;;12.30;1.00;;;;;;7370815;19;20011;-70
2023/10/16 13:51:35;;;;;;;3.05;1.60;;;12.30;1.00;;;;;;7378514;19;20010;-71
2023/10/16 13:54:11;;;;;;;2.63;1.50;;;12.00;1.00;;;;;;7375077;19;20014;-71
2023/10/16 13:56:42;;;;;;;2.35;1.73;;;12.10;1.00;;;;;;7375771;19;20383;-70
2023/10/16 13:59:12;;;;;;;2.33;1.73;;;12.30;1.00;;;;;;7374018;19;20014;-69
2023/10/16 14:01:43;;;;;;;2.03;1.52;;;12.10;1.00;;;;;;7378097;19;20140;-69
2023/10/16 14:04:14;;;;;;;2.83;1.80;;;12.10;1.00;;;;;;7377696;19;20006;-69
2023/10/16 14:06:47;;;;;;;3.25;1.50;;;12.10;1.00;;;;;;7378720;19;20011;-70
2023/10/16 14:09:27;;;;;;;3.05;1.45;;;12.10;1.00;;;;;;7376798;19;20521;-70
2023/10/16 14:11:59;;;;;;;1.77;1.30;;;11.90;1.00;;;;;;7377590;19;20364;-70
2023/10/16 14:14:33;;;;;;;1.88;1.30;;;11.90;1.00;;;;;;7377753;19;20504;-70
2023/10/16 14:17:16;;;;;;;5.43;1.70;;;12.20;1.00;;;;;;7375510;19;20010;-70
2023/10/16 14:19:47;;;;;;;3.40;1.50;;;12.10;1.00;;;;;;6968890;19;2005297;-70
2023/10/16 14:22:19;;;;;;;3.45;1.33;;;12.20;1.00;;;;;;7377076;19;20024;-70
2023/10/16 14:24:51;;;;;;;3.55;1.13;;;12.10;1.00;;;;;;7379142;19;20011;-70
2023/10/16 14:27:24;;;;;;;2.38;1.10;;;12.00;1.00;;;;;;7376270;19;20055;-71
2023/10/16 14:29:59;;;;;;;2.55;1.38;;;12.00;1.00;;;;;;7376525;19;20482;-71
2023/10/16 14:32:29;;;;;;;;;;;12.00;1.00;;;;;;7379124;19;20017;-70
2023/10/16 14:35:00;;;;;;;1.23;1.10;;;11.90;1.00;;;;;;7376271;19;19949;-68
2023/10/16 14:37:30;;;;;;;3.75;1.27;;;11.90;1.00;;;;;;7374785;19;20013;-68
2023/10/16 14:40:04;;;;;;;2.33;0.85;;;12.00;1.00;;;;;;7377531;19;20007;-70
2023/10/16 14:42:34;;;;;;;3.70;1.90;;;12.00;1.00;;;;;;7375781;19;20010;-70
2023/10/16 14:45:06;;;;;;;2.40;1.50;;;12.00;1.00;;;;;;7375920;19;20011;-70
2023/10/16 14:47:36;;;;;;;5.60;2.35;;;11.90;1.00;;;;;;7376225;19;20061;-70
2023/10/16 14:50:08;;;;;;;3.10;1.52;;;11.80;1.00;;;;;;7377586;19;20014;-69
2023/10/16 14:52:38;;;;;;;2.22;1.05;;;11.80;1.00;;;;;;7377633;19;20515;-69
2023/10/16 14:55:11;;;;;;;3.25;0.98;;;11.80;1.00;;;;;;7375475;19;20010;-70
2023/10/16 14:57:41;;;;;;;4.38;1.70;;;11.80;1.00;;;;;;7376976;19;20010;-70
2023/10/16 15:00:32;;;;;;;5.55;1.23;;;11.80;1.00;;;;;;7378718;19;20027;-71
2023/10/16 15:03:03;;;;;;;1.40;0.70;;;11.70;1.00;;;;;;7378961;19;20354;-69